sensor_id;sensor_type;location;lat;lon;timestamp;P1;durP1;ratioP1;P2;durP2;ratioP2
76712;SDS011;65640;43.154;25.658;2023-05-10T00:02:23;6.13;;;4.10;;
76712;SDS011;65640;43.154;25.658;2023-05-10T00:04:49;3.65;;;3.35;;
76712;SDS011;65640;43.154;25.658;2023-05-10T00:07:14;4.47;;;4.07;;
76712;SDS011;65640;43.154;25.658;2023-05-10T00:09:42;5.57;;;4.20;;
76712;SDS011;65640;43.154;25.658;2023-05-10T00:12:08;6.00;;;4.20;;
76712;SDS011;65640;43.154;25.658;2023-05-10T00:14:33;4.22;;;3.92;;
76712;SDS011;65640;43.154;25.658;2023-05-10T00:16:58;8.80;;;4.45;;
76712;SDS011;65640;43.154;25.658;2023-05-10T00:19:24;7.55;;;5.07;;
76712;SDS011;65640;43.154;25.658;2023-05-10T00:21:49;7.35;;;4.20;;
76712;SDS011;65640;43.154;25.658;2023-05-10T00:24:15;10.23;;;3.88;;
76712;SDS011;65640;43.154;25.658;2023-05-10T00:26:40;4.93;;;3.60;;
76712;SDS011;65640;43.154;25.658;2023-05-10T00:31:32;4.70;;;3.80;;
76712;SDS011;65640;43.154;25.658;2023-05-10T00:33:57;9.32;;;4.10;;
76712;SDS011;65640;43.154;25.658;2023-05-10T00:36:23;5.82;;;3.75;;
76712;SDS011;65640;43.154;25.658;2023-05-10T00:38:48;5.00;;;3.40;;
76712;SDS011;65640;43.154;25.658;2023-05-10T00:41:14;4.43;;;3.55;;
76712;SDS011;65640;43.154;25.658;2023-05-10T00:43:40;10.07;;;4.18;;
76712;SDS011;65640;43.154;25.658;2023-05-10T00:46:06;7.07;;;3.55;;
76712;SDS011;65640;43.154;25.658;2023-05-10T00:48:31;7.00;;;4.30;;
76712;SDS011;65640;43.154;25.658;2023-05-10T00:50:57;6.82;;;3.50;;
76712;SDS011;65640;43.154;25.658;2023-05-10T00:53:22;7.30;;;3.90;;
76712;SDS011;65640;43.154;25.658;2023-05-10T00:55:49;6.43;;;3.92;;
76712;SDS011;65640;43.154;25.658;2023-05-10T00:58:16;13.43;;;5.60;;
76712;SDS011;65640;43.154;25.658;2023-05-10T01:00:42;5.75;;;3.75;;
76712;SDS011;65640;43.154;25.658;2023-05-10T01:03:09;4.45;;;3.72;;
76712;SDS011;65640;43.154;25.658;2023-05-10T01:05:36;7.75;;;3.35;;
76712;SDS011;65640;43.154;25.658;2023-05-10T01:08:02;3.75;;;3.47;;
76712;SDS011;65640;43.154;25.658;2023-05-10T01:10:27;6.68;;;3.83;;
76712;SDS011;65640;43.154;25.658;2023-05-10T01:12:53;4.47;;;4.05;;
76712;SDS011;65640;43.154;25.658;2023-05-10T01:15:19;4.32;;;3.50;;
76712;SDS011;65640;43.154;25.658;2023-05-10T01:17:45;4.25;;;3.65;;
76712;SDS011;65640;43.154;25.658;2023-05-10T01:20:12;5.50;;;4.00;;
76712;SDS011;65640;43.154;25.658;2023-05-10T01:33:33;5.10;;;3.90;;
76712;SDS011;65640;43.154;25.658;2023-05-10T01:36:11;4.97;;;4.13;;
76712;SDS011;65640;43.154;25.658;2023-05-10T01:38:44;5.18;;;3.83;;
76712;SDS011;65640;43.154;25.658;2023-05-10T01:41:19;5.40;;;3.85;;
76712;SDS011;65640;43.154;25.658;2023-05-10T01:46:40;7.38;;;4.05;;
76712;SDS011;65640;43.154;25.658;2023-05-10T01:49:09;11.85;;;4.40;;
76712;SDS011;65640;43.154;25.658;2023-05-10T01:51:48;6.55;;;4.15;;
76712;SDS011;65640;43.154;25.658;2023-05-10T01:54:19;5.50;;;4.65;;
76712;SDS011;65640;43.154;25.658;2023-05-10T01:56:47;6.82;;;4.32;;
76712;SDS011;65640;43.154;25.658;2023-05-10T01:59:29;8.85;;;4.30;;
76712;SDS011;65640;43.154;25.658;2023-05-10T02:02:01;7.18;;;4.47;;
76712;SDS011;65640;43.154;25.658;2023-05-10T02:04:28;6.88;;;4.78;;
76712;SDS011;65640;43.154;25.658;2023-05-10T02:06:54;8.98;;;4.43;;
76712;SDS011;65640;43.154;25.658;2023-05-10T02:09:21;6.75;;;4.68;;
76712;SDS011;65640;43.154;25.658;2023-05-10T02:11:50;8.75;;;5.43;;
76712;SDS011;65640;43.154;25.658;2023-05-10T02:14:16;6.28;;;5.07;;
76712;SDS011;65640;43.154;25.658;2023-05-10T02:16:43;9.32;;;4.55;;
76712;SDS011;65640;43.154;25.658;2023-05-10T02:19:10;6.78;;;5.22;;
76712;SDS011;65640;43.154;25.658;2023-05-10T02:21:37;9.30;;;4.78;;
76712;SDS011;65640;43.154;25.658;2023-05-10T02:24:04;6.32;;;4.60;;
76712;SDS011;65640;43.154;25.658;2023-05-10T02:26:31;7.63;;;4.63;;
76712;SDS011;65640;43.154;25.658;2023-05-10T02:28:59;6.28;;;4.75;;
76712;SDS011;65640;43.154;25.658;2023-05-10T02:31:28;9.02;;;4.15;;
76712;SDS011;65640;43.154;25.658;2023-05-10T02:33:56;5.10;;;4.53;;
76712;SDS011;65640;43.154;25.658;2023-05-10T02:36:22;5.63;;;5.13;;
76712;SDS011;65640;43.154;25.658;2023-05-10T02:38:48;9.52;;;5.15;;
76712;SDS011;65640;43.154;25.658;2023-05-10T02:41:16;6.50;;;4.50;;
76712;SDS011;65640;43.154;25.658;2023-05-10T02:46:09;4.82;;;4.25;;
76712;SDS011;65640;43.154;25.658;2023-05-10T02:48:34;11.82;;;5.07;;
76712;SDS011;65640;43.154;25.658;2023-05-10T02:51:00;6.57;;;4.97;;
76712;SDS011;65640;43.154;25.658;2023-05-10T02:53:33;5.18;;;4.72;;
76712;SDS011;65640;43.154;25.658;2023-05-10T02:56:01;7.20;;;4.75;;
76712;SDS011;65640;43.154;25.658;2023-05-10T02:58:32;7.15;;;4.43;;
76712;SDS011;65640;43.154;25.658;2023-05-10T03:00:57;5.15;;;3.97;;
76712;SDS011;65640;43.154;25.658;2023-05-10T03:03:23;6.20;;;4.28;;
76712;SDS011;65640;43.154;25.658;2023-05-10T03:05:48;7.20;;;5.05;;
76712;SDS011;65640;43.154;25.658;2023-05-10T03:08:14;6.72;;;4.80;;
76712;SDS011;65640;43.154;25.658;2023-05-10T03:10:54;10.18;;;5.38;;
76712;SDS011;65640;43.154;25.658;2023-05-10T03:13:54;7.38;;;4.82;;
76712;SDS011;65640;43.154;25.658;2023-05-10T03:16:16;5.75;;;5.13;;
76712;SDS011;65640;43.154;25.658;2023-05-10T03:18:54;5.10;;;4.60;;
76712;SDS011;65640;43.154;25.658;2023-05-10T03:21:25;5.43;;;4.93;;
76712;SDS011;65640;43.154;25.658;2023-05-10T03:24:07;7.00;;;4.95;;
76712;SDS011;65640;43.154;25.658;2023-05-10T03:26:36;7.97;;;5.47;;
76712;SDS011;65640;43.154;25.658;2023-05-10T03:29:04;7.15;;;4.55;;
76712;SDS011;65640;43.154;25.658;2023-05-10T03:31:31;5.05;;;4.45;;
76712;SDS011;65640;43.154;25.658;2023-05-10T03:33:57;4.90;;;4.10;;
76712;SDS011;65640;43.154;25.658;2023-05-10T03:36:22;8.52;;;4.65;;
76712;SDS011;65640;43.154;25.658;2023-05-10T03:38:48;12.77;;;5.20;;
76712;SDS011;65640;43.154;25.658;2023-05-10T03:41:13;5.78;;;4.80;;
76712;SDS011;65640;43.154;25.658;2023-05-10T03:43:39;8.77;;;5.15;;
76712;SDS011;65640;43.154;25.658;2023-05-10T03:46:05;8.35;;;4.93;;
76712;SDS011;65640;43.154;25.658;2023-05-10T03:48:34;7.63;;;4.95;;
76712;SDS011;65640;43.154;25.658;2023-05-10T03:50:59;11.90;;;4.65;;
76712;SDS011;65640;43.154;25.658;2023-05-10T03:53:25;5.07;;;4.55;;
76712;SDS011;65640;43.154;25.658;2023-05-10T03:55:50;8.00;;;4.68;;
76712;SDS011;65640;43.154;25.658;2023-05-10T03:58:16;9.57;;;4.90;;
76712;SDS011;65640;43.154;25.658;2023-05-10T04:00:41;8.48;;;4.30;;
76712;SDS011;65640;43.154;25.658;2023-05-10T04:03:09;8.48;;;4.88;;
76712;SDS011;65640;43.154;25.658;2023-05-10T04:05:35;7.32;;;4.50;;
76712;SDS011;65640;43.154;25.658;2023-05-10T04:08:01;5.38;;;4.00;;
76712;SDS011;65640;43.154;25.658;2023-05-10T04:10:27;8.85;;;5.65;;
76712;SDS011;65640;43.154;25.658;2023-05-10T04:12:52;6.93;;;4.72;;
76712;SDS011;65640;43.154;25.658;2023-05-10T04:15:18;5.72;;;4.55;;
76712;SDS011;65640;43.154;25.658;2023-05-10T04:17:43;6.85;;;4.57;;
76712;SDS011;65640;43.154;25.658;2023-05-10T04:20:09;6.55;;;4.90;;
76712;SDS011;65640;43.154;25.658;2023-05-10T04:22:34;7.00;;;4.22;;
76712;SDS011;65640;43.154;25.658;2023-05-10T04:25:00;4.10;;;3.70;;
76712;SDS011;65640;43.154;25.658;2023-05-10T04:27:25;5.13;;;4.45;;
76712;SDS011;65640;43.154;25.658;2023-05-10T04:29:51;6.40;;;4.18;;
76712;SDS011;65640;43.154;25.658;2023-05-10T04:32:16;8.20;;;5.00;;
76712;SDS011;65640;43.154;25.658;2023-05-10T04:34:42;10.75;;;5.15;;
76712;SDS011;65640;43.154;25.658;2023-05-10T04:37:09;4.78;;;4.38;;
76712;SDS011;65640;43.154;25.658;2023-05-10T04:39:35;6.85;;;4.57;;
76712;SDS011;65640;43.154;25.658;2023-05-10T04:42:00;6.53;;;4.45;;
76712;SDS011;65640;43.154;25.658;2023-05-10T04:44:28;5.00;;;4.25;;
76712;SDS011;65640;43.154;25.658;2023-05-10T04:46:53;6.68;;;4.68;;
76712;SDS011;65640;43.154;25.658;2023-05-10T04:49:19;4.60;;;4.10;;
76712;SDS011;65640;43.154;25.658;2023-05-10T04:51:44;7.10;;;4.40;;
76712;SDS011;65640;43.154;25.658;2023-05-10T04:54:10;9.55;;;4.63;;
76712;SDS011;65640;43.154;25.658;2023-05-10T04:56:35;6.53;;;3.80;;
76712;SDS011;65640;43.154;25.658;2023-05-10T04:59:01;4.70;;;3.50;;
76712;SDS011;65640;43.154;25.658;2023-05-10T05:01:26;5.03;;;3.80;;
76712;SDS011;65640;43.154;25.658;2023-05-10T05:03:52;5.47;;;3.78;;
76712;SDS011;65640;43.154;25.658;2023-05-10T05:06:17;4.72;;;3.85;;
76712;SDS011;65640;43.154;25.658;2023-05-10T05:08:43;6.50;;;4.05;;
76712;SDS011;65640;43.154;25.658;2023-05-10T05:11:08;7.05;;;4.13;;
76712;SDS011;65640;43.154;25.658;2023-05-10T05:13:34;5.68;;;4.30;;
76712;SDS011;65640;43.154;25.658;2023-05-10T05:16:00;4.78;;;3.50;;
76712;SDS011;65640;43.154;25.658;2023-05-10T05:18:27;5.13;;;4.07;;
76712;SDS011;65640;43.154;25.658;2023-05-10T05:20:52;6.03;;;3.80;;
76712;SDS011;65640;43.154;25.658;2023-05-10T05:23:17;3.95;;;3.58;;
76712;SDS011;65640;43.154;25.658;2023-05-10T05:25:45;5.65;;;3.70;;
76712;SDS011;65640;43.154;25.658;2023-05-10T05:28:11;4.15;;;3.75;;
76712;SDS011;65640;43.154;25.658;2023-05-10T05:30:36;4.82;;;3.60;;
76712;SDS011;65640;43.154;25.658;2023-05-10T05:33:01;3.95;;;3.38;;
76712;SDS011;65640;43.154;25.658;2023-05-10T05:35:27;4.50;;;3.85;;
76712;SDS011;65640;43.154;25.658;2023-05-10T05:37:52;4.22;;;3.40;;
76712;SDS011;65640;43.154;25.658;2023-05-10T05:40:18;5.25;;;4.00;;
76712;SDS011;65640;43.154;25.658;2023-05-10T05:42:43;5.75;;;3.50;;
76712;SDS011;65640;43.154;25.658;2023-05-10T05:45:09;3.40;;;3.10;;
76712;SDS011;65640;43.154;25.658;2023-05-10T05:47:37;9.07;;;3.22;;
76712;SDS011;65640;43.154;25.658;2023-05-10T05:50:03;4.22;;;3.78;;
76712;SDS011;65640;43.154;25.658;2023-05-10T05:52:29;4.53;;;3.25;;
76712;SDS011;65640;43.154;25.658;2023-05-10T05:54:55;4.30;;;3.00;;
76712;SDS011;65640;43.154;25.658;2023-05-10T05:57:20;6.18;;;2.88;;
76712;SDS011;65640;43.154;25.658;2023-05-10T05:59:46;3.17;;;2.97;;
76712;SDS011;65640;43.154;25.658;2023-05-10T06:02:12;3.97;;;3.60;;
76712;SDS011;65640;43.154;25.658;2023-05-10T06:04:38;8.88;;;3.00;;
76712;SDS011;65640;43.154;25.658;2023-05-10T06:07:03;3.45;;;3.25;;
76712;SDS011;65640;43.154;25.658;2023-05-10T06:09:28;6.43;;;2.20;;
76712;SDS011;65640;43.154;25.658;2023-05-10T06:11:54;5.90;;;2.70;;
76712;SDS011;65640;43.154;25.658;2023-05-10T06:14:20;3.53;;;2.75;;
76712;SDS011;65640;43.154;25.658;2023-05-10T06:16:45;6.05;;;2.45;;
76712;SDS011;65640;43.154;25.658;2023-05-10T06:19:11;7.88;;;2.83;;
76712;SDS011;65640;43.154;25.658;2023-05-10T06:21:36;5.53;;;2.38;;
76712;SDS011;65640;43.154;25.658;2023-05-10T06:24:02;4.25;;;2.55;;
76712;SDS011;65640;43.154;25.658;2023-05-10T06:26:27;3.10;;;2.72;;
76712;SDS011;65640;43.154;25.658;2023-05-10T06:28:53;3.80;;;2.63;;
76712;SDS011;65640;43.154;25.658;2023-05-10T06:31:18;3.50;;;2.95;;
76712;SDS011;65640;43.154;25.658;2023-05-10T06:33:44;6.28;;;2.88;;
76712;SDS011;65640;43.154;25.658;2023-05-10T06:36:09;5.38;;;3.08;;
76712;SDS011;65640;43.154;25.658;2023-05-10T06:38:35;2.55;;;2.30;;
76712;SDS011;65640;43.154;25.658;2023-05-10T06:41:00;3.92;;;3.63;;
76712;SDS011;65640;43.154;25.658;2023-05-10T06:43:25;3.47;;;2.85;;
76712;SDS011;65640;43.154;25.658;2023-05-10T06:45:53;4.22;;;2.05;;
76712;SDS011;65640;43.154;25.658;2023-05-10T06:48:18;2.45;;;2.25;;
76712;SDS011;65640;43.154;25.658;2023-05-10T06:50:44;2.70;;;2.47;;
76712;SDS011;65640;43.154;25.658;2023-05-10T06:53:09;3.70;;;2.50;;
76712;SDS011;65640;43.154;25.658;2023-05-10T06:55:35;2.85;;;2.63;;
76712;SDS011;65640;43.154;25.658;2023-05-10T06:58:00;6.22;;;2.33;;
76712;SDS011;65640;43.154;25.658;2023-05-10T07:00:27;3.40;;;2.05;;
76712;SDS011;65640;43.154;25.658;2023-05-10T07:02:52;4.03;;;2.20;;
76712;SDS011;65640;43.154;25.658;2023-05-10T07:05:17;2.78;;;2.20;;
76712;SDS011;65640;43.154;25.658;2023-05-10T07:07:43;2.83;;;1.90;;
76712;SDS011;65640;43.154;25.658;2023-05-10T07:10:09;6.35;;;2.08;;
76712;SDS011;65640;43.154;25.658;2023-05-10T07:12:34;4.05;;;1.73;;
76712;SDS011;65640;43.154;25.658;2023-05-10T07:15:00;4.32;;;2.00;;
76712;SDS011;65640;43.154;25.658;2023-05-10T07:17:25;2.50;;;2.10;;
76712;SDS011;65640;43.154;25.658;2023-05-10T07:19:51;2.08;;;1.98;;
76712;SDS011;65640;43.154;25.658;2023-05-10T07:22:16;3.65;;;1.80;;
76712;SDS011;65640;43.154;25.658;2023-05-10T07:24:42;1.70;;;1.60;;
76712;SDS011;65640;43.154;25.658;2023-05-10T07:27:08;2.60;;;1.60;;
76712;SDS011;65640;43.154;25.658;2023-05-10T07:29:34;1.80;;;1.70;;
76712;SDS011;65640;43.154;25.658;2023-05-10T07:31:59;2.55;;;2.00;;
76712;SDS011;65640;43.154;25.658;2023-05-10T07:34:25;2.58;;;1.80;;
76712;SDS011;65640;43.154;25.658;2023-05-10T07:36:51;3.05;;;2.20;;
76712;SDS011;65640;43.154;25.658;2023-05-10T07:39:16;1.60;;;1.50;;
76712;SDS011;65640;43.154;25.658;2023-05-10T07:41:42;2.90;;;1.90;;
76712;SDS011;65640;43.154;25.658;2023-05-10T07:44:07;4.45;;;1.80;;
76712;SDS011;65640;43.154;25.658;2023-05-10T07:46:33;2.60;;;1.45;;
76712;SDS011;65640;43.154;25.658;2023-05-10T07:48:58;4.60;;;2.17;;
76712;SDS011;65640;43.154;25.658;2023-05-10T07:51:23;2.80;;;1.50;;
76712;SDS011;65640;43.154;25.658;2023-05-10T07:53:49;4.55;;;1.90;;
76712;SDS011;65640;43.154;25.658;2023-05-10T07:56:27;2.28;;;1.58;;
76712;SDS011;65640;43.154;25.658;2023-05-10T07:59:01;1.63;;;1.50;;
76712;SDS011;65640;43.154;25.658;2023-05-10T08:01:32;1.70;;;1.60;;
76712;SDS011;65640;43.154;25.658;2023-05-10T08:03:58;3.40;;;1.67;;
76712;SDS011;65640;43.154;25.658;2023-05-10T08:06:25;1.83;;;1.70;;
76712;SDS011;65640;43.154;25.658;2023-05-10T08:08:52;6.25;;;2.38;;
76712;SDS011;65640;43.154;25.658;2023-05-10T08:11:19;1.58;;;1.40;;
76712;SDS011;65640;43.154;25.658;2023-05-10T08:16:11;1.52;;;1.42;;
76712;SDS011;65640;43.154;25.658;2023-05-10T08:18:37;3.38;;;1.67;;
76712;SDS011;65640;43.154;25.658;2023-05-10T08:21:02;1.35;;;1.33;;
76712;SDS011;65640;43.154;25.658;2023-05-10T08:23:28;3.10;;;1.60;;
76712;SDS011;65640;43.154;25.658;2023-05-10T08:25:53;2.22;;;1.50;;
76712;SDS011;65640;43.154;25.658;2023-05-10T08:28:18;3.17;;;1.60;;
76712;SDS011;65640;43.154;25.658;2023-05-10T08:30:44;1.52;;;1.42;;
76712;SDS011;65640;43.154;25.658;2023-05-10T08:33:09;5.60;;;2.42;;
76712;SDS011;65640;43.154;25.658;2023-05-10T08:35:35;1.48;;;1.38;;
76712;SDS011;65640;43.154;25.658;2023-05-10T08:38:00;2.55;;;1.50;;
76712;SDS011;65640;43.154;25.658;2023-05-10T08:40:26;4.78;;;1.60;;
76712;SDS011;65640;43.154;25.658;2023-05-10T08:43:11;2.47;;;1.55;;
76712;SDS011;65640;43.154;25.658;2023-05-10T08:48:07;2.00;;;1.60;;
76712;SDS011;65640;43.154;25.658;2023-05-10T08:50:38;4.22;;;1.52;;
76712;SDS011;65640;43.154;25.658;2023-05-10T08:53:06;3.00;;;1.60;;
76712;SDS011;65640;43.154;25.658;2023-05-10T08:55:34;2.65;;;1.70;;
76712;SDS011;65640;43.154;25.658;2023-05-10T08:58:02;2.33;;;1.48;;
76712;SDS011;65640;43.154;25.658;2023-05-10T09:00:28;2.25;;;1.75;;
76712;SDS011;65640;43.154;25.658;2023-05-10T09:02:54;2.55;;;1.20;;
76712;SDS011;65640;43.154;25.658;2023-05-10T09:05:20;1.52;;;1.42;;
76712;SDS011;65640;43.154;25.658;2023-05-10T09:07:46;1.67;;;1.58;;
76712;SDS011;65640;43.154;25.658;2023-05-10T09:10:11;1.95;;;1.40;;
76712;SDS011;65640;43.154;25.658;2023-05-10T09:12:38;2.22;;;1.30;;
76712;SDS011;65640;43.154;25.658;2023-05-10T09:15:04;1.73;;;1.50;;
76712;SDS011;65640;43.154;25.658;2023-05-10T09:17:32;1.95;;;1.20;;
76712;SDS011;65640;43.154;25.658;2023-05-10T09:20:01;1.75;;;1.65;;
76712;SDS011;65640;43.154;25.658;2023-05-10T09:22:30;1.40;;;1.30;;
76712;SDS011;65640;43.154;25.658;2023-05-10T09:25:13;1.65;;;1.40;;
76712;SDS011;65640;43.154;25.658;2023-05-10T09:27:40;2.33;;;1.20;;
76712;SDS011;65640;43.154;25.658;2023-05-10T09:30:09;3.55;;;1.50;;
76712;SDS011;65640;43.154;25.658;2023-05-10T09:32:45;1.45;;;1.35;;
76712;SDS011;65640;43.154;25.658;2023-05-10T09:35:15;3.10;;;1.38;;
76712;SDS011;65640;43.154;25.658;2023-05-10T09:37:44;2.67;;;1.38;;
76712;SDS011;65640;43.154;25.658;2023-05-10T09:40:13;1.60;;;1.17;;
76712;SDS011;65640;43.154;25.658;2023-05-10T09:42:41;1.25;;;1.25;;
76712;SDS011;65640;43.154;25.658;2023-05-10T09:45:08;3.95;;;1.48;;
76712;SDS011;65640;43.154;25.658;2023-05-10T09:47:34;2.58;;;1.42;;
76712;SDS011;65640;43.154;25.658;2023-05-10T09:50:01;1.48;;;1.38;;
76712;SDS011;65640;43.154;25.658;2023-05-10T09:52:35;1.40;;;1.30;;
76712;SDS011;65640;43.154;25.658;2023-05-10T09:55:12;1.42;;;1.13;;
76712;SDS011;65640;43.154;25.658;2023-05-10T09:57:37;1.45;;;1.30;;
76712;SDS011;65640;43.154;25.658;2023-05-10T10:00:04;2.90;;;1.50;;
76712;SDS011;65640;43.154;25.658;2023-05-10T10:02:31;3.22;;;1.60;;
76712;SDS011;65640;43.154;25.658;2023-05-10T10:04:57;2.25;;;1.30;;
76712;SDS011;65640;43.154;25.658;2023-05-10T10:07:23;1.50;;;1.40;;
76712;SDS011;65640;43.154;25.658;2023-05-10T10:09:52;1.77;;;1.67;;
76712;SDS011;65640;43.154;25.658;2023-05-10T10:12:18;1.67;;;1.30;;
76712;SDS011;65640;43.154;25.658;2023-05-10T10:14:45;1.00;;;1.00;;
76712;SDS011;65640;43.154;25.658;2023-05-10T10:17:12;3.25;;;1.20;;
76712;SDS011;65640;43.154;25.658;2023-05-10T10:19:38;1.38;;;1.25;;
76712;SDS011;65640;43.154;25.658;2023-05-10T10:22:04;1.88;;;1.30;;
76712;SDS011;65640;43.154;25.658;2023-05-10T10:26:57;1.17;;;1.17;;
76712;SDS011;65640;43.154;25.658;2023-05-10T10:29:34;2.78;;;1.23;;
76712;SDS011;65640;43.154;25.658;2023-05-10T10:32:09;3.50;;;1.40;;
76712;SDS011;65640;43.154;25.658;2023-05-10T10:34:44;2.45;;;2.00;;
76712;SDS011;65640;43.154;25.658;2023-05-10T10:37:10;4.10;;;1.10;;
76712;SDS011;65640;43.154;25.658;2023-05-10T10:39:35;1.45;;;1.35;;
76712;SDS011;65640;43.154;25.658;2023-05-10T10:42:01;1.55;;;1.20;;
76712;SDS011;65640;43.154;25.658;2023-05-10T10:52:32;1.63;;;1.10;;
76712;SDS011;65640;43.154;25.658;2023-05-10T11:00:21;1.65;;;1.30;;
76712;SDS011;65640;43.154;25.658;2023-05-10T11:07:57;1.27;;;0.85;;
76712;SDS011;65640;43.154;25.658;2023-05-10T11:10:24;1.05;;;0.90;;
76712;SDS011;65640;43.154;25.658;2023-05-10T11:13:04;1.83;;;1.10;;
76712;SDS011;65640;43.154;25.658;2023-05-10T11:18:16;1.02;;;0.93;;
76712;SDS011;65640;43.154;25.658;2023-05-10T11:20:52;1.05;;;1.02;;
76712;SDS011;65640;43.154;25.658;2023-05-10T11:23:20;1.10;;;1.00;;
76712;SDS011;65640;43.154;25.658;2023-05-10T11:25:46;2.03;;;0.90;;
76712;SDS011;65640;43.154;25.658;2023-05-10T11:28:13;3.03;;;1.10;;
76712;SDS011;65640;43.154;25.658;2023-05-10T11:30:39;1.05;;;0.80;;
76712;SDS011;65640;43.154;25.658;2023-05-10T11:33:06;0.60;;;0.60;;
76712;SDS011;65640;43.154;25.658;2023-05-10T11:35:38;2.67;;;0.95;;
76712;SDS011;65640;43.154;25.658;2023-05-10T11:38:07;2.25;;;0.93;;
76712;SDS011;65640;43.154;25.658;2023-05-10T11:40:34;2.17;;;0.98;;
76712;SDS011;65640;43.154;25.658;2023-05-10T11:45:25;0.90;;;0.80;;
76712;SDS011;65640;43.154;25.658;2023-05-10T11:47:53;0.98;;;0.90;;
76712;SDS011;65640;43.154;25.658;2023-05-10T11:50:18;1.83;;;0.98;;
76712;SDS011;65640;43.154;25.658;2023-05-10T11:52:43;1.48;;;0.90;;
76712;SDS011;65640;43.154;25.658;2023-05-10T11:55:09;2.25;;;0.98;;
76712;SDS011;65640;43.154;25.658;2023-05-10T11:57:34;0.93;;;0.80;;
76712;SDS011;65640;43.154;25.658;2023-05-10T12:00:03;2.92;;;0.93;;
76712;SDS011;65640;43.154;25.658;2023-05-10T12:02:29;0.82;;;0.70;;
76712;SDS011;65640;43.154;25.658;2023-05-10T12:04:55;1.50;;;1.00;;
76712;SDS011;65640;43.154;25.658;2023-05-10T12:07:21;3.38;;;0.90;;
76712;SDS011;65640;43.154;25.658;2023-05-10T12:12:36;0.80;;;0.80;;
76712;SDS011;65640;43.154;25.658;2023-05-10T12:15:03;1.95;;;0.80;;
76712;SDS011;65640;43.154;25.658;2023-05-10T12:17:29;2.67;;;1.00;;
76712;SDS011;65640;43.154;25.658;2023-05-10T12:19:58;1.48;;;0.80;;
76712;SDS011;65640;43.154;25.658;2023-05-10T12:22:37;2.47;;;0.85;;
76712;SDS011;65640;43.154;25.658;2023-05-10T12:25:03;1.30;;;1.05;;
76712;SDS011;65640;43.154;25.658;2023-05-10T12:27:31;2.17;;;0.93;;
76712;SDS011;65640;43.154;25.658;2023-05-10T12:29:58;0.98;;;0.93;;
76712;SDS011;65640;43.154;25.658;2023-05-10T12:32:36;0.98;;;0.98;;
76712;SDS011;65640;43.154;25.658;2023-05-10T12:35:03;4.63;;;1.08;;
76712;SDS011;65640;43.154;25.658;2023-05-10T12:37:29;3.95;;;1.10;;
76712;SDS011;65640;43.154;25.658;2023-05-10T12:39:54;2.63;;;1.10;;
76712;SDS011;65640;43.154;25.658;2023-05-10T12:42:20;1.33;;;1.00;;
76712;SDS011;65640;43.154;25.658;2023-05-10T12:44:45;0.82;;;0.82;;
76712;SDS011;65640;43.154;25.658;2023-05-10T12:47:11;2.30;;;0.70;;
76712;SDS011;65640;43.154;25.658;2023-05-10T12:49:36;3.47;;;0.88;;
76712;SDS011;65640;43.154;25.658;2023-05-10T12:52:02;2.28;;;0.90;;
76712;SDS011;65640;43.154;25.658;2023-05-10T12:54:27;0.95;;;0.93;;
76712;SDS011;65640;43.154;25.658;2023-05-10T12:56:53;2.33;;;0.90;;
76712;SDS011;65640;43.154;25.658;2023-05-10T12:59:18;1.67;;;1.10;;
76712;SDS011;65640;43.154;25.658;2023-05-10T13:01:43;1.42;;;0.98;;
76712;SDS011;65640;43.154;25.658;2023-05-10T13:04:09;1.73;;;0.90;;
76712;SDS011;65640;43.154;25.658;2023-05-10T13:06:34;1.63;;;1.00;;
76712;SDS011;65640;43.154;25.658;2023-05-10T13:09:00;1.45;;;1.13;;
76712;SDS011;65640;43.154;25.658;2023-05-10T13:11:25;5.57;;;2.50;;
76712;SDS011;65640;43.154;25.658;2023-05-10T13:13:51;41.53;;;25.75;;
76712;SDS011;65640;43.154;25.658;2023-05-10T13:16:16;8.77;;;6.75;;
76712;SDS011;65640;43.154;25.658;2023-05-10T13:18:42;1.33;;;1.33;;
76712;SDS011;65640;43.154;25.658;2023-05-10T13:21:07;3.65;;;1.33;;
76712;SDS011;65640;43.154;25.658;2023-05-10T13:23:33;2.47;;;1.30;;
76712;SDS011;65640;43.154;25.658;2023-05-10T13:25:59;1.40;;;1.30;;
76712;SDS011;65640;43.154;25.658;2023-05-10T13:28:24;5.50;;;4.82;;
76712;SDS011;65640;43.154;25.658;2023-05-10T13:30:51;1.60;;;1.50;;
76712;SDS011;65640;43.154;25.658;2023-05-10T13:33:16;3.25;;;3.05;;
76712;SDS011;65640;43.154;25.658;2023-05-10T13:35:42;1.73;;;1.63;;
76712;SDS011;65640;43.154;25.658;2023-05-10T13:38:07;2.17;;;2.08;;
76712;SDS011;65640;43.154;25.658;2023-05-10T13:40:33;4.97;;;2.00;;
76712;SDS011;65640;43.154;25.658;2023-05-10T13:42:59;4.55;;;2.20;;
76712;SDS011;65640;43.154;25.658;2023-05-10T13:45:24;5.93;;;2.10;;
76712;SDS011;65640;43.154;25.658;2023-05-10T13:47:49;0.85;;;0.85;;
76712;SDS011;65640;43.154;25.658;2023-05-10T13:50:15;4.30;;;1.60;;
76712;SDS011;65640;43.154;25.658;2023-05-10T13:52:40;3.78;;;1.90;;
76712;SDS011;65640;43.154;25.658;2023-05-10T13:55:06;1.48;;;1.05;;
76712;SDS011;65640;43.154;25.658;2023-05-10T13:57:32;2.97;;;1.40;;
76712;SDS011;65640;43.154;25.658;2023-05-10T13:59:59;2.50;;;1.45;;
76712;SDS011;65640;43.154;25.658;2023-05-10T14:02:24;2.00;;;1.45;;
76712;SDS011;65640;43.154;25.658;2023-05-10T14:04:52;3.40;;;2.33;;
76712;SDS011;65640;43.154;25.658;2023-05-10T14:07:17;2.42;;;1.45;;
76712;SDS011;65640;43.154;25.658;2023-05-10T14:09:43;3.13;;;1.27;;
76712;SDS011;65640;43.154;25.658;2023-05-10T14:12:08;2.83;;;2.10;;
76712;SDS011;65640;43.154;25.658;2023-05-10T14:14:34;2.83;;;1.70;;
76712;SDS011;65640;43.154;25.658;2023-05-10T14:16:59;1.27;;;1.13;;
76712;SDS011;65640;43.154;25.658;2023-05-10T14:19:25;1.65;;;1.55;;
76712;SDS011;65640;43.154;25.658;2023-05-10T14:21:51;1.30;;;1.30;;
76712;SDS011;65640;43.154;25.658;2023-05-10T14:24:17;1.30;;;1.20;;
76712;SDS011;65640;43.154;25.658;2023-05-10T14:26:42;4.68;;;1.77;;
76712;SDS011;65640;43.154;25.658;2023-05-10T14:29:08;2.25;;;1.80;;
76712;SDS011;65640;43.154;25.658;2023-05-10T14:31:33;2.38;;;1.02;;
76712;SDS011;65640;43.154;25.658;2023-05-10T14:33:58;1.10;;;1.00;;
76712;SDS011;65640;43.154;25.658;2023-05-10T14:36:24;1.90;;;1.80;;
76712;SDS011;65640;43.154;25.658;2023-05-10T14:38:49;1.67;;;1.55;;
76712;SDS011;65640;43.154;25.658;2023-05-10T14:41:15;4.68;;;1.13;;
76712;SDS011;65640;43.154;25.658;2023-05-10T14:43:42;2.63;;;1.45;;
76712;SDS011;65640;43.154;25.658;2023-05-10T14:46:08;3.33;;;1.88;;
76712;SDS011;65640;43.154;25.658;2023-05-10T14:48:33;1.98;;;1.88;;
76712;SDS011;65640;43.154;25.658;2023-05-10T14:50:59;5.70;;;2.00;;
76712;SDS011;65640;43.154;25.658;2023-05-10T14:53:24;1.50;;;1.40;;
76712;SDS011;65640;43.154;25.658;2023-05-10T14:55:50;3.47;;;1.10;;
76712;SDS011;65640;43.154;25.658;2023-05-10T14:58:15;1.70;;;1.60;;
76712;SDS011;65640;43.154;25.658;2023-05-10T15:00:41;3.53;;;1.55;;
76712;SDS011;65640;43.154;25.658;2023-05-10T15:03:06;2.53;;;2.38;;
76712;SDS011;65640;43.154;25.658;2023-05-10T15:05:32;4.57;;;2.40;;
76712;SDS011;65640;43.154;25.658;2023-05-10T15:07:57;2.55;;;1.63;;
76712;SDS011;65640;43.154;25.658;2023-05-10T15:10:22;3.38;;;1.90;;
76712;SDS011;65640;43.154;25.658;2023-05-10T15:12:48;1.60;;;1.50;;
76712;SDS011;65640;43.154;25.658;2023-05-10T15:15:13;3.97;;;1.70;;
76712;SDS011;65640;43.154;25.658;2023-05-10T15:17:39;0.75;;;0.75;;
76712;SDS011;65640;43.154;25.658;2023-05-10T15:20:05;2.97;;;1.15;;
76712;SDS011;65640;43.154;25.658;2023-05-10T15:22:31;1.42;;;1.00;;
76712;SDS011;65640;43.154;25.658;2023-05-10T15:24:57;3.17;;;2.90;;